sensor_id;sensor_type;location;lat;lon;timestamp;temperature;humidity
34153;DHT22;20426;48.372;10.888;2023-05-06T00:00:11;13.80;99.90
34153;DHT22;20426;48.372;10.888;2023-05-06T00:00:42;13.80;99.90
34153;DHT22;20426;48.372;10.888;2023-05-06T00:01:12;13.80;99.90
34153;DHT22;20426;48.372;10.888;2023-05-06T00:01:44;13.80;99.90
34153;DHT22;20426;48.372;10.888;2023-05-06T00:02:15;13.80;99.90
34153;DHT22;20426;48.372;10.888;2023-05-06T00:02:46;13.80;99.90
34153;DHT22;20426;48.372;10.888;2023-05-06T00:03:17;13.80;99.90
34153;DHT22;20426;48.372;10.888;2023-05-06T00:03:49;13.80;99.90
34153;DHT22;20426;48.372;10.888;2023-05-06T00:04:19;13.80;99.90
34153;DHT22;20426;48.372;10.888;2023-05-06T00:04:51;13.70;99.90
34153;DHT22;20426;48.372;10.888;2023-05-06T00:05:22;13.70;99.90
34153;DHT22;20426;48.372;10.888;2023-05-06T00:05:53;13.70;99.90
34153;DHT22;20426;48.372;10.888;2023-05-06T00:06:23;13.70;99.90
34153;DHT22;20426;48.372;10.888;2023-05-06T00:06:54;13.70;99.90
34153;DHT22;20426;48.372;10.888;2023-05-06T00:07:26;13.70;99.90
34153;DHT22;20426;48.372;10.888;2023-05-06T00:07:57;13.70;99.90
34153;DHT22;20426;48.372;10.888;2023-05-06T00:08:28;13.70;99.90
34153;DHT22;20426;48.372;10.888;2023-05-06T00:08:58;13.70;99.90
34153;DHT22;20426;48.372;10.888;2023-05-06T00:09:30;13.70;99.90
34153;DHT22;20426;48.372;10.888;2023-05-06T00:10:00;13.70;99.90
34153;DHT22;20426;48.372;10.888;2023-05-06T00:10:31;13.70;99.90
34153;DHT22;20426;48.372;10.888;2023-05-06T00:11:02;13.70;99.90
34153;DHT22;20426;48.372;10.888;2023-05-06T00:11:33;13.70;99.90
34153;DHT22;20426;48.372;10.888;2023-05-06T00:12:03;13.70;99.90
34153;DHT22;20426;48.372;10.888;2023-05-06T00:12:34;13.70;99.90
34153;DHT22;20426;48.372;10.888;2023-05-06T00:13:05;13.70;99.90
34153;DHT22;20426;48.372;10.888;2023-05-06T00:13:37;13.70;99.90
34153;DHT22;20426;48.372;10.888;2023-05-06T00:14:08;13.70;99.90
34153;DHT22;20426;48.372;10.888;2023-05-06T00:14:38;13.70;99.90
34153;DHT22;20426;48.372;10.888;2023-05-06T00:15:10;13.70;99.90
34153;DHT22;20426;48.372;10.888;2023-05-06T00:15:40;13.70;99.90
34153;DHT22;20426;48.372;10.888;2023-05-06T00:16:11;13.70;99.90
34153;DHT22;20426;48.372;10.888;2023-05-06T00:16:42;13.70;99.90
34153;DHT22;20426;48.372;10.888;2023-05-06T00:17:12;13.70;99.90
34153;DHT22;20426;48.372;10.888;2023-05-06T00:17:43;13.70;99.90
34153;DHT22;20426;48.372;10.888;2023-05-06T00:18:14;13.70;99.90
34153;DHT22;20426;48.372;10.888;2023-05-06T00:18:44;13.70;99.90
34153;DHT22;20426;48.372;10.888;2023-05-06T00:19:15;13.70;99.90
34153;DHT22;20426;48.372;10.888;2023-05-06T00:19:46;13.70;99.90
34153;DHT22;20426;48.372;10.888;2023-05-06T00:20:17;13.70;99.90
34153;DHT22;20426;48.372;10.888;2023-05-06T00:20:48;13.70;99.90
34153;DHT22;20426;48.372;10.888;2023-05-06T00:21:19;13.70;99.90
34153;DHT22;20426;48.372;10.888;2023-05-06T00:21:50;13.70;99.90
34153;DHT22;20426;48.372;10.888;2023-05-06T00:22:21;13.70;99.90
34153;DHT22;20426;48.372;10.888;2023-05-06T00:22:52;13.70;99.90
34153;DHT22;20426;48.372;10.888;2023-05-06T00:23:22;13.70;99.90
34153;DHT22;20426;48.372;10.888;2023-05-06T00:23:53;13.70;99.90
34153;DHT22;20426;48.372;10.888;2023-05-06T00:24:24;13.70;99.90
34153;DHT22;20426;48.372;10.888;2023-05-06T00:24:54;13.70;99.90
34153;DHT22;20426;48.372;10.888;2023-05-06T00:25:25;13.70;99.90
34153;DHT22;20426;48.372;10.888;2023-05-06T00:25:56;13.70;99.90
34153;DHT22;20426;48.372;10.888;2023-05-06T00:26:26;13.70;99.90
34153;DHT22;20426;48.372;10.888;2023-05-06T00:26:57;13.70;99.90
34153;DHT22;20426;48.372;10.888;2023-05-06T00:27:28;13.70;99.90
34153;DHT22;20426;48.372;10.888;2023-05-06T00:27:58;13.70;99.90
34153;DHT22;20426;48.372;10.888;2023-05-06T00:28:29;13.70;99.90
34153;DHT22;20426;48.372;10.888;2023-05-06T00:29:00;13.70;99.90
34153;DHT22;20426;48.372;10.888;2023-05-06T00:29:30;13.70;99.90
34153;DHT22;20426;48.372;10.888;2023-05-06T00:30:01;13.70;99.90
34153;DHT22;20426;48.372;10.888;2023-05-06T00:30:32;13.70;99.90
34153;DHT22;20426;48.372;10.888;2023-05-06T00:31:03;13.70;99.90
34153;DHT22;20426;48.372;10.888;2023-05-06T00:31:33;13.70;99.90
34153;DHT22;20426;48.372;10.888;2023-05-06T00:32:04;13.70;99.90
34153;DHT22;20426;48.372;10.888;2023-05-06T00:32:35;13.70;99.90
34153;DHT22;20426;48.372;10.888;2023-05-06T00:33:06;13.70;99.90
34153;DHT22;20426;48.372;10.888;2023-05-06T00:33:36;13.70;99.90
34153;DHT22;20426;48.372;10.888;2023-05-06T00:34:08;13.70;99.90
34153;DHT22;20426;48.372;10.888;2023-05-06T00:34:39;13.70;99.90
34153;DHT22;20426;48.372;10.888;2023-05-06T00:35:10;13.70;99.90
34153;DHT22;20426;48.372;10.888;2023-05-06T00:35:41;13.70;99.90
34153;DHT22;20426;48.372;10.888;2023-05-06T00:36:12;13.70;99.90
34153;DHT22;20426;48.372;10.888;2023-05-06T00:36:43;13.70;99.90
34153;DHT22;20426;48.372;10.888;2023-05-06T00:37:13;13.70;99.90
34153;DHT22;20426;48.372;10.888;2023-05-06T00:37:45;13.70;99.90
34153;DHT22;20426;48.372;10.888;2023-05-06T00:38:16;13.70;99.90
34153;DHT22;20426;48.372;10.888;2023-05-06T00:38:46;13.70;99.90
34153;DHT22;20426;48.372;10.888;2023-05-06T00:39:17;13.70;99.90
34153;DHT22;20426;48.372;10.888;2023-05-06T00:39:48;13.80;99.90
34153;DHT22;20426;48.372;10.888;2023-05-06T00:40:18;13.80;99.90
34153;DHT22;20426;48.372;10.888;2023-05-06T00:40:49;13.80;99.90
34153;DHT22;20426;48.372;10.888;2023-05-06T00:41:20;13.80;99.90
34153;DHT22;20426;48.372;10.888;2023-05-06T00:41:51;13.80;99.90
34153;DHT22;20426;48.372;10.888;2023-05-06T00:42:21;13.80;99.90
34153;DHT22;20426;48.372;10.888;2023-05-06T00:42:52;13.80;99.90
34153;DHT22;20426;48.372;10.888;2023-05-06T00:43:23;13.70;99.90
34153;DHT22;20426;48.372;10.888;2023-05-06T00:43:54;13.70;99.90
34153;DHT22;20426;48.372;10.888;2023-05-06T00:44:24;13.70;99.90
34153;DHT22;20426;48.372;10.888;2023-05-06T00:44:55;13.70;99.90
34153;DHT22;20426;48.372;10.888;2023-05-06T00:45:26;13.70;99.90
34153;DHT22;20426;48.372;10.888;2023-05-06T00:45:57;13.70;99.90
34153;DHT22;20426;48.372;10.888;2023-05-06T00:46:27;13.70;99.90
34153;DHT22;20426;48.372;10.888;2023-05-06T00:46:59;13.70;99.90
34153;DHT22;20426;48.372;10.888;2023-05-06T00:47:30;13.70;99.90
34153;DHT22;20426;48.372;10.888;2023-05-06T00:48:01;13.70;99.90
34153;DHT22;20426;48.372;10.888;2023-05-06T00:48:33;13.70;99.90
34153;DHT22;20426;48.372;10.888;2023-05-06T00:49:05;13.70;99.90
34153;DHT22;20426;48.372;10.888;2023-05-06T00:49:36;13.70;99.90
34153;DHT22;20426;48.372;10.888;2023-05-06T00:50:07;13.60;99.90
34153;DHT22;20426;48.372;10.888;2023-05-06T00:50:39;13.70;99.90
34153;DHT22;20426;48.372;10.888;2023-05-06T00:51:11;13.70;99.90
34153;DHT22;20426;48.372;10.888;2023-05-06T00:51:42;13.70;99.90
34153;DHT22;20426;48.372;10.888;2023-05-06T00:52:13;13.70;99.90
34153;DHT22;20426;48.372;10.888;2023-05-06T00:52:45;13.70;99.90
34153;DHT22;20426;48.372;10.888;2023-05-06T00:53:18;13.60;99.90
34153;DHT22;20426;48.372;10.888;2023-05-06T00:53:50;13.60;99.90
34153;DHT22;20426;48.372;10.888;2023-05-06T00:54:22;13.70;99.90
34153;DHT22;20426;48.372;10.888;2023-05-06T00:54:53;13.70;99.90
34153;DHT22;20426;48.372;10.888;2023-05-06T00:55:25;13.70;99.90
34153;DHT22;20426;48.372;10.888;2023-05-06T00:55:56;13.70;99.90
34153;DHT22;20426;48.372;10.888;2023-05-06T00:56:27;13.70;99.90
34153;DHT22;20426;48.372;10.888;2023-05-06T00:56:58;13.70;99.90
34153;DHT22;20426;48.372;10.888;2023-05-06T00:57:29;13.60;99.90
34153;DHT22;20426;48.372;10.888;2023-05-06T00:57:59;13.60;99.90
34153;DHT22;20426;48.372;10.888;2023-05-06T00:58:30;13.70;99.90
34153;DHT22;20426;48.372;10.888;2023-05-06T00:59:01;13.70;99.90
34153;DHT22;20426;48.372;10.888;2023-05-06T00:59:32;13.70;99.90
34153;DHT22;20426;48.372;10.888;2023-05-06T01:00:03;13.70;99.90
34153;DHT22;20426;48.372;10.888;2023-05-06T01:00:36;13.70;99.90
34153;DHT22;20426;48.372;10.888;2023-05-06T01:01:07;13.70;99.90
34153;DHT22;20426;48.372;10.888;2023-05-06T01:01:37;13.60;99.90
34153;DHT22;20426;48.372;10.888;2023-05-06T01:02:08;13.60;99.90
34153;DHT22;20426;48.372;10.888;2023-05-06T01:02:39;13.60;99.90
34153;DHT22;20426;48.372;10.888;2023-05-06T01:03:10;13.60;99.90
34153;DHT22;20426;48.372;10.888;2023-05-06T01:03:40;13.60;99.90
34153;DHT22;20426;48.372;10.888;2023-05-06T01:04:11;13.60;99.90
34153;DHT22;20426;48.372;10.888;2023-05-06T01:04:42;13.60;99.90
34153;DHT22;20426;48.372;10.888;2023-05-06T01:05:14;13.60;99.90
34153;DHT22;20426;48.372;10.888;2023-05-06T01:07:00;13.60;99.90
34153;DHT22;20426;48.372;10.888;2023-05-06T01:07:51;13.60;99.90
34153;DHT22;20426;48.372;10.888;2023-05-06T01:08:29;13.60;99.90
34153;DHT22;20426;48.372;10.888;2023-05-06T01:09:04;13.60;99.90
34153;DHT22;20426;48.372;10.888;2023-05-06T01:10:01;13.60;99.90
34153;DHT22;20426;48.372;10.888;2023-05-06T01:11:40;13.50;99.90
34153;DHT22;20426;48.372;10.888;2023-05-06T01:12:19;13.60;99.90
34153;DHT22;20426;48.372;10.888;2023-05-06T01:13:13;13.50;99.90
34153;DHT22;20426;48.372;10.888;2023-05-06T01:13:51;13.50;99.90
34153;DHT22;20426;48.372;10.888;2023-05-06T01:15:13;13.50;99.90
34153;DHT22;20426;48.372;10.888;2023-05-06T01:15:53;13.50;99.90
34153;DHT22;20426;48.372;10.888;2023-05-06T01:16:26;13.50;99.90
34153;DHT22;20426;48.372;10.888;2023-05-06T01:17:03;13.50;99.90
34153;DHT22;20426;48.372;10.888;2023-05-06T01:17:39;13.50;99.90
34153;DHT22;20426;48.372;10.888;2023-05-06T01:18:22;13.50;99.90
34153;DHT22;20426;48.372;10.888;2023-05-06T01:18:55;13.50;99.90
34153;DHT22;20426;48.372;10.888;2023-05-06T01:19:35;13.50;99.90
34153;DHT22;20426;48.372;10.888;2023-05-06T01:20:06;13.50;99.90
34153;DHT22;20426;48.372;10.888;2023-05-06T01:20:42;13.50;99.90
34153;DHT22;20426;48.372;10.888;2023-05-06T01:21:13;13.60;99.90
34153;DHT22;20426;48.372;10.888;2023-05-06T01:21:45;13.60;99.90
34153;DHT22;20426;48.372;10.888;2023-05-06T01:22:18;13.50;99.90
34153;DHT22;20426;48.372;10.888;2023-05-06T01:22:49;13.50;99.90
34153;DHT22;20426;48.372;10.888;2023-05-06T01:23:20;13.50;99.90
34153;DHT22;20426;48.372;10.888;2023-05-06T01:23:55;13.50;99.90
34153;DHT22;20426;48.372;10.888;2023-05-06T01:24:43;13.50;99.90
34153;DHT22;20426;48.372;10.888;2023-05-06T01:25:20;13.50;99.90
34153;DHT22;20426;48.372;10.888;2023-05-06T01:25:51;13.50;99.90
34153;DHT22;20426;48.372;10.888;2023-05-06T01:26:26;13.50;99.90
34153;DHT22;20426;48.372;10.888;2023-05-06T01:26:57;13.50;99.90
34153;DHT22;20426;48.372;10.888;2023-05-06T01:27:27;13.60;99.90
34153;DHT22;20426;48.372;10.888;2023-05-06T01:27:58;13.50;99.90
34153;DHT22;20426;48.372;10.888;2023-05-06T01:28:29;13.60;99.90
34153;DHT22;20426;48.372;10.888;2023-05-06T01:29:00;13.60;99.90
34153;DHT22;20426;48.372;10.888;2023-05-06T01:29:33;13.50;99.90
34153;DHT22;20426;48.372;10.888;2023-05-06T01:30:05;13.60;99.90
34153;DHT22;20426;48.372;10.888;2023-05-06T01:31:25;13.50;99.90
34153;DHT22;20426;48.372;10.888;2023-05-06T01:32:01;13.60;99.90
34153;DHT22;20426;48.372;10.888;2023-05-06T01:32:44;13.60;99.90
34153;DHT22;20426;48.372;10.888;2023-05-06T01:34:26;13.60;99.90
34153;DHT22;20426;48.372;10.888;2023-05-06T01:36:54;13.60;99.90
34153;DHT22;20426;48.372;10.888;2023-05-06T01:38:36;13.60;99.90
34153;DHT22;20426;48.372;10.888;2023-05-06T01:39:17;13.60;99.90
34153;DHT22;20426;48.372;10.888;2023-05-06T01:39:52;13.60;99.90
34153;DHT22;20426;48.372;10.888;2023-05-06T01:40:26;13.50;99.90
34153;DHT22;20426;48.372;10.888;2023-05-06T01:40:59;13.50;99.90
34153;DHT22;20426;48.372;10.888;2023-05-06T01:41:32;13.50;99.90
34153;DHT22;20426;48.372;10.888;2023-05-06T01:42:04;13.50;99.90
34153;DHT22;20426;48.372;10.888;2023-05-06T01:42:37;13.50;99.90
34153;DHT22;20426;48.372;10.888;2023-05-06T01:43:11;13.50;99.90
34153;DHT22;20426;48.372;10.888;2023-05-06T01:43:44;13.50;99.90
34153;DHT22;20426;48.372;10.888;2023-05-06T01:44:16;13.50;99.90
34153;DHT22;20426;48.372;10.888;2023-05-06T01:44:52;13.50;99.90
34153;DHT22;20426;48.372;10.888;2023-05-06T01:45:27;13.50;99.90
34153;DHT22;20426;48.372;10.888;2023-05-06T01:45:59;13.50;99.90
34153;DHT22;20426;48.372;10.888;2023-05-06T01:46:30;13.50;99.90
34153;DHT22;20426;48.372;10.888;2023-05-06T01:47:02;13.50;99.90
34153;DHT22;20426;48.372;10.888;2023-05-06T01:47:35;13.40;99.90
34153;DHT22;20426;48.372;10.888;2023-05-06T01:48:06;13.50;99.90
34153;DHT22;20426;48.372;10.888;2023-05-06T01:48:38;13.50;99.90
34153;DHT22;20426;48.372;10.888;2023-05-06T01:49:10;13.50;99.90
34153;DHT22;20426;48.372;10.888;2023-05-06T01:49:41;13.50;99.90
34153;DHT22;20426;48.372;10.888;2023-05-06T01:50:12;13.50;99.90
34153;DHT22;20426;48.372;10.888;2023-05-06T01:50:43;13.50;99.90
34153;DHT22;20426;48.372;10.888;2023-05-06T01:51:14;13.50;99.90
34153;DHT22;20426;48.372;10.888;2023-05-06T01:51:49;13.50;99.90
34153;DHT22;20426;48.372;10.888;2023-05-06T01:52:20;13.50;99.90
34153;DHT22;20426;48.372;10.888;2023-05-06T01:52:59;13.50;99.90
34153;DHT22;20426;48.372;10.888;2023-05-06T01:53:31;13.50;99.90
34153;DHT22;20426;48.372;10.888;2023-05-06T01:54:02;13.50;99.90
34153;DHT22;20426;48.372;10.888;2023-05-06T01:54:33;13.50;99.90
34153;DHT22;20426;48.372;10.888;2023-05-06T01:55:04;13.50;99.90
34153;DHT22;20426;48.372;10.888;2023-05-06T01:55:35;13.50;99.90
34153;DHT22;20426;48.372;10.888;2023-05-06T01:56:06;13.60;99.90
34153;DHT22;20426;48.372;10.888;2023-05-06T01:56:37;13.60;99.90
34153;DHT22;20426;48.372;10.888;2023-05-06T01:57:07;13.60;99.90
34153;DHT22;20426;48.372;10.888;2023-05-06T01:57:38;13.50;99.90
34153;DHT22;20426;48.372;10.888;2023-05-06T01:58:09;13.50;99.90
34153;DHT22;20426;48.372;10.888;2023-05-06T01:58:39;13.50;99.90
34153;DHT22;20426;48.372;10.888;2023-05-06T01:59:10;13.50;99.90
34153;DHT22;20426;48.372;10.888;2023-05-06T01:59:41;13.50;99.90
34153;DHT22;20426;48.372;10.888;2023-05-06T02:00:12;13.50;99.90
34153;DHT22;20426;48.372;10.888;2023-05-06T02:00:42;13.50;99.90
34153;DHT22;20426;48.372;10.888;2023-05-06T02:01:13;13.50;99.90
34153;DHT22;20426;48.372;10.888;2023-05-06T02:01:44;13.50;99.90
34153;DHT22;20426;48.372;10.888;2023-05-06T02:02:14;13.50;99.90
34153;DHT22;20426;48.372;10.888;2023-05-06T02:02:45;13.50;99.90
34153;DHT22;20426;48.372;10.888;2023-05-06T02:03:16;13.50;99.90
34153;DHT22;20426;48.372;10.888;2023-05-06T02:03:47;13.50;99.90
34153;DHT22;20426;48.372;10.888;2023-05-06T02:04:18;13.50;99.90
34153;DHT22;20426;48.372;10.888;2023-05-06T02:04:51;13.50;99.90
34153;DHT22;20426;48.372;10.888;2023-05-06T02:05:22;13.50;99.90
34153;DHT22;20426;48.372;10.888;2023-05-06T02:05:52;13.50;99.90
34153;DHT22;20426;48.372;10.888;2023-05-06T02:06:23;13.50;99.90
34153;DHT22;20426;48.372;10.888;2023-05-06T02:06:53;13.50;99.90
34153;DHT22;20426;48.372;10.888;2023-05-06T02:07:24;13.50;99.90
34153;DHT22;20426;48.372;10.888;2023-05-06T02:07:55;13.50;99.90
34153;DHT22;20426;48.372;10.888;2023-05-06T02:08:26;13.50;99.90
34153;DHT22;20426;48.372;10.888;2023-05-06T02:08:56;13.50;99.90
34153;DHT22;20426;48.372;10.888;2023-05-06T02:09:27;13.40;99.90
34153;DHT22;20426;48.372;10.888;2023-05-06T02:09:57;13.40;99.90
34153;DHT22;20426;48.372;10.888;2023-05-06T02:10:28;13.40;99.90
34153;DHT22;20426;48.372;10.888;2023-05-06T02:10:59;13.40;99.90
34153;DHT22;20426;48.372;10.888;2023-05-06T02:11:29;13.40;99.90
34153;DHT22;20426;48.372;10.888;2023-05-06T02:12:00;13.40;99.90
34153;DHT22;20426;48.372;10.888;2023-05-06T02:12:31;13.40;99.90
34153;DHT22;20426;48.372;10.888;2023-05-06T02:13:01;13.40;99.90
34153;DHT22;20426;48.372;10.888;2023-05-06T02:13:32;13.40;99.90
34153;DHT22;20426;48.372;10.888;2023-05-06T02:14:03;13.40;99.90
34153;DHT22;20426;48.372;10.888;2023-05-06T02:14:34;13.40;99.90
34153;DHT22;20426;48.372;10.888;2023-05-06T02:15:05;13.40;99.90
34153;DHT22;20426;48.372;10.888;2023-05-06T02:15:36;13.40;99.90
34153;DHT22;20426;48.372;10.888;2023-05-06T02:16:06;13.40;99.90
34153;DHT22;20426;48.372;10.888;2023-05-06T02:16:38;13.40;99.90
34153;DHT22;20426;48.372;10.888;2023-05-06T02:17:08;13.40;99.90
34153;DHT22;20426;48.372;10.888;2023-05-06T02:17:39;13.40;99.90
34153;DHT22;20426;48.372;10.888;2023-05-06T02:18:10;13.40;99.90
34153;DHT22;20426;48.372;10.888;2023-05-06T02:18:41;13.30;99.90
34153;DHT22;20426;48.372;10.888;2023-05-06T02:19:11;13.30;99.90
34153;DHT22;20426;48.372;10.888;2023-05-06T02:19:42;13.30;99.90
34153;DHT22;20426;48.372;10.888;2023-05-06T02:20:12;13.30;99.90
34153;DHT22;20426;48.372;10.888;2023-05-06T02:20:43;13.30;99.90
34153;DHT22;20426;48.372;10.888;2023-05-06T02:21:14;13.30;99.90
34153;DHT22;20426;48.372;10.888;2023-05-06T02:21:44;13.30;99.90
34153;DHT22;20426;48.372;10.888;2023-05-06T02:22:15;13.30;99.90
34153;DHT22;20426;48.372;10.888;2023-05-06T02:22:46;13.30;99.90
34153;DHT22;20426;48.372;10.888;2023-05-06T02:23:16;13.30;99.90
34153;DHT22;20426;48.372;10.888;2023-05-06T02:23:47;13.30;99.90
34153;DHT22;20426;48.372;10.888;2023-05-06T02:24:18;13.30;99.90
34153;DHT22;20426;48.372;10.888;2023-05-06T02:24:49;13.30;99.90
34153;DHT22;20426;48.372;10.888;2023-05-06T02:25:20;13.30;99.90
34153;DHT22;20426;48.372;10.888;2023-05-06T02:25:51;13.30;99.90
34153;DHT22;20426;48.372;10.888;2023-05-06T02:26:22;13.30;99.90
34153;DHT22;20426;48.372;10.888;2023-05-06T02:26:52;13.30;99.90
34153;DHT22;20426;48.372;10.888;2023-05-06T02:27:23;13.30;99.90
34153;DHT22;20426;48.372;10.888;2023-05-06T02:27:54;13.30;99.90
34153;DHT22;20426;48.372;10.888;2023-05-06T02:28:24;13.30;99.90
34153;DHT22;20426;48.372;10.888;2023-05-06T02:28:55;13.30;99.90
34153;DHT22;20426;48.372;10.888;2023-05-06T02:29:26;13.30;99.90
34153;DHT22;20426;48.372;10.888;2023-05-06T02:29:56;13.30;99.90
34153;DHT22;20426;48.372;10.888;2023-05-06T02:30:27;13.30;99.90
34153;DHT22;20426;48.372;10.888;2023-05-06T02:31:00;13.30;99.90
34153;DHT22;20426;48.372;10.888;2023-05-06T02:31:30;13.30;99.90
34153;DHT22;20426;48.372;10.888;2023-05-06T02:32:01;13.30;99.90
34153;DHT22;20426;48.372;10.888;2023-05-06T02:32:32;13.30;99.90
34153;DHT22;20426;48.372;10.888;2023-05-06T02:33:03;13.30;99.90
34153;DHT22;20426;48.372;10.888;2023-05-06T02:33:33;13.20;99.90
34153;DHT22;20426;48.372;10.888;2023-05-06T02:34:04;13.30;99.90
34153;DHT22;20426;48.372;10.888;2023-05-06T02:34:35;13.30;99.90
34153;DHT22;20426;48.372;10.888;2023-05-06T02:35:06;13.30;99.90
34153;DHT22;20426;48.372;10.888;2023-05-06T02:35:37;13.30;99.90
34153;DHT22;20426;48.372;10.888;2023-05-06T02:36:08;13.20;99.90
34153;DHT22;20426;48.372;10.888;2023-05-06T02:36:38;13.30;99.90
34153;DHT22;20426;48.372;10.888;2023-05-06T02:37:09;13.30;99.90
34153;DHT22;20426;48.372;10.888;2023-05-06T02:37:39;13.30;99.90
34153;DHT22;20426;48.372;10.888;2023-05-06T02:38:10;13.30;99.90
34153;DHT22;20426;48.372;10.888;2023-05-06T02:38:41;13.20;99.90
34153;DHT22;20426;48.372;10.888;2023-05-06T02:39:11;13.30;99.90
34153;DHT22;20426;48.372;10.888;2023-05-06T02:39:42;13.30;99.90
34153;DHT22;20426;48.372;10.888;2023-05-06T02:40:13;13.20;99.90
34153;DHT22;20426;48.372;10.888;2023-05-06T02:40:44;13.30;99.90
34153;DHT22;20426;48.372;10.888;2023-05-06T02:41:14;13.20;99.90
34153;DHT22;20426;48.372;10.888;2023-05-06T02:41:45;13.20;99.90
34153;DHT22;20426;48.372;10.888;2023-05-06T02:42:16;13.20;99.90
34153;DHT22;20426;48.372;10.888;2023-05-06T02:42:46;13.20;99.90
34153;DHT22;20426;48.372;10.888;2023-05-06T02:43:17;13.20;99.90
34153;DHT22;20426;48.372;10.888;2023-05-06T02:43:48;13.20;99.90
34153;DHT22;20426;48.372;10.888;2023-05-06T02:44:19;13.20;99.90
34153;DHT22;20426;48.372;10.888;2023-05-06T02:44:49;13.30;99.90
34153;DHT22;20426;48.372;10.888;2023-05-06T02:45:20;13.30;99.90
34153;DHT22;20426;48.372;10.888;2023-05-06T02:45:51;13.30;99.90
34153;DHT22;20426;48.372;10.888;2023-05-06T02:46:22;13.30;99.90
34153;DHT22;20426;48.372;10.888;2023-05-06T02:46:53;13.30;99.90
34153;DHT22;20426;48.372;10.888;2023-05-06T02:47:23;13.20;99.90
34153;DHT22;20426;48.372;10.888;2023-05-06T02:47:54;13.30;99.90
34153;DHT22;20426;48.372;10.888;2023-05-06T02:48:25;13.20;99.90
34153;DHT22;20426;48.372;10.888;2023-05-06T02:48:55;13.20;99.90
34153;DHT22;20426;48.372;10.888;2023-05-06T02:49:26;13.20;99.90
34153;DHT22;20426;48.372;10.888;2023-05-06T02:49:57;13.20;99.90
34153;DHT22;20426;48.372;10.888;2023-05-06T02:50:27;13.20;99.90
34153;DHT22;20426;48.372;10.888;2023-05-06T02:50:58;13.30;99.90
34153;DHT22;20426;48.372;10.888;2023-05-06T02:51:29;13.30;99.90
34153;DHT22;20426;48.372;10.888;2023-05-06T02:52:00;13.30;99.90
34153;DHT22;20426;48.372;10.888;2023-05-06T02:52:31;13.20;99.90
34153;DHT22;20426;48.372;10.888;2023-05-06T02:53:02;13.30;99.90
34153;DHT22;20426;48.372;10.888;2023-05-06T02:53:33;13.20;99.90
34153;DHT22;20426;48.372;10.888;2023-05-06T02:54:04;13.30;99.90
34153;DHT22;20426;48.372;10.888;2023-05-06T02:54:35;13.20;99.90
34153;DHT22;20426;48.372;10.888;2023-05-06T02:55:06;13.20;99.90
34153;DHT22;20426;48.372;10.888;2023-05-06T02:55:36;13.20;99.90
34153;DHT22;20426;48.372;10.888;2023-05-06T02:56:07;13.20;99.90
34153;DHT22;20426;48.372;10.888;2023-05-06T02:56:38;13.20;99.90
34153;DHT22;20426;48.372;10.888;2023-05-06T02:57:08;13.20;99.90
34153;DHT22;20426;48.372;10.888;2023-05-06T02:57:39;13.20;99.90
34153;DHT22;20426;48.372;10.888;2023-05-06T02:58:10;13.20;99.90
34153;DHT22;20426;48.372;10.888;2023-05-06T02:58:40;13.20;99.90
34153;DHT22;20426;48.372;10.888;2023-05-06T02:59:12;13.20;99.90
34153;DHT22;20426;48.372;10.888;2023-05-06T02:59:43;13.10;99.90
34153;DHT22;20426;48.372;10.888;2023-05-06T03:00:13;13.20;99.90
34153;DHT22;20426;48.372;10.888;2023-05-06T03:00:44;13.10;99.90
34153;DHT22;20426;48.372;10.888;2023-05-06T03:01:15;13.10;99.90
34153;DHT22;20426;48.372;10.888;2023-05-06T03:01:46;13.10;99.90
34153;DHT22;20426;48.372;10.888;2023-05-06T03:02:17;13.10;99.90
34153;DHT22;20426;48.372;10.888;2023-05-06T03:02:47;13.20;99.90
34153;DHT22;20426;48.372;10.888;2023-05-06T03:03:18;13.20;99.90
34153;DHT22;20426;48.372;10.888;2023-05-06T03:03:48;13.20;99.90
34153;DHT22;20426;48.372;10.888;2023-05-06T03:04:19;13.10;99.90
34153;DHT22;20426;48.372;10.888;2023-05-06T03:04:51;13.20;99.90
34153;DHT22;20426;48.372;10.888;2023-05-06T03:05:21;13.10;99.90
34153;DHT22;20426;48.372;10.888;2023-05-06T03:05:52;13.10;99.90
34153;DHT22;20426;48.372;10.888;2023-05-06T03:06:23;13.10;99.90
34153;DHT22;20426;48.372;10.888;2023-05-06T03:06:53;13.10;99.90
34153;DHT22;20426;48.372;10.888;2023-05-06T03:07:24;13.10;99.90
34153;DHT22;20426;48.372;10.888;2023-05-06T03:07:55;13.10;99.90
34153;DHT22;20426;48.372;10.888;2023-05-06T03:08:26;13.10;99.90
34153;DHT22;20426;48.372;10.888;2023-05-06T03:08:56;13.10;99.90
34153;DHT22;20426;48.372;10.888;2023-05-06T03:09:27;13.10;99.90
34153;DHT22;20426;48.372;10.888;2023-05-06T03:09:58;13.10;99.90
34153;DHT22;20426;48.372;10.888;2023-05-06T03:10:29;13.00;99.90
34153;DHT22;20426;48.372;10.888;2023-05-06T03:10:59;13.10;99.90
34153;DHT22;20426;48.372;10.888;2023-05-06T03:11:31;13.00;99.90
34153;DHT22;20426;48.372;10.888;2023-05-06T03:12:02;13.10;99.90
34153;DHT22;20426;48.372;10.888;2023-05-06T03:12:33;13.10;99.90
34153;DHT22;20426;48.372;10.888;2023-05-06T03:13:04;13.00;99.90
34153;DHT22;20426;48.372;10.888;2023-05-06T03:13:35;13.00;99.90
34153;DHT22;20426;48.372;10.888;2023-05-06T03:14:05;13.00;99.90
34153;DHT22;20426;48.372;10.888;2023-05-06T03:14:36;13.00;99.90
34153;DHT22;20426;48.372;10.888;2023-05-06T03:15:07;13.00;99.90
34153;DHT22;20426;48.372;10.888;2023-05-06T03:15:38;13.00;99.90
34153;DHT22;20426;48.372;10.888;2023-05-06T03:16:12;13.00;99.90
34153;DHT22;20426;48.372;10.888;2023-05-06T03:16:43;13.10;99.90
34153;DHT22;20426;48.372;10.888;2023-05-06T03:17:14;13.10;99.90
34153;DHT22;20426;48.372;10.888;2023-05-06T03:17:46;13.10;99.90
34153;DHT22;20426;48.372;10.888;2023-05-06T03:18:16;13.10;99.90
34153;DHT22;20426;48.372;10.888;2023-05-06T03:18:47;13.10;99.90
34153;DHT22;20426;48.372;10.888;2023-05-06T03:19:18;13.10;99.90
34153;DHT22;20426;48.372;10.888;2023-05-06T03:19:49;13.10;99.90
34153;DHT22;20426;48.372;10.888;2023-05-06T03:20:20;13.10;99.90
34153;DHT22;20426;48.372;10.888;2023-05-06T03:20:51;13.10;99.90
34153;DHT22;20426;48.372;10.888;2023-05-06T03:21:21;13.10;99.90
34153;DHT22;20426;48.372;10.888;2023-05-06T03:21:52;13.10;99.90
34153;DHT22;20426;48.372;10.888;2023-05-06T03:22:23;13.10;99.90
34153;DHT22;20426;48.372;10.888;2023-05-06T03:22:54;13.10;99.90
34153;DHT22;20426;48.372;10.888;2023-05-06T03:23:25;13.10;99.90
34153;DHT22;20426;48.372;10.888;2023-05-06T03:23:56;13.00;99.90
34153;DHT22;20426;48.372;10.888;2023-05-06T03:24:26;13.10;99.90